Santa Paula, California
Current Conditions -  °F | °C
As of 10:55 PM on Sunday 23 Nov 2014 (Local Time) from KCMA Reporting Station
Clear Clear  
Wind Chill: 55°   Ceiling: Unl
Heat Index: 55°   Visibility: 10mi
Dew Point: 31°   Wind: 3mph
Humidity: 40%   Direction: 60°ENE
Pressure: 30.15"   Gusts: NA
Location:  34.35°N, 119.05°W
Report Text: KCMA 240655Z AUTO 06003KT 10SM CLR 13/M01 A3015 RMK AO2 SLP219 T01281006 TSNO
Loading
Personal Weather Stations






























Interactive Weather Map New forecast layout! Learn more

10-Day Weather Forecast

Advertisements
Track Severe Weather on mobile